Portada
METAR-TAF:

METAR-TAF

Aeroports :

Illa de Montserrat, Montserrat

latitud: 16-47-29N, longitud: 062-11-36W, altitud: 168 m

Observació

L'informe es va fer fa 19 minuts, a les 22:00 UTC
Vent 7 kt del Est/Sud-Est
Temperatura 26°C
Humitat 79%
Pressió
Visibilitat 10 km o més
Escasses núvols a una alçada de 2500 ft

METAR: TRPG 272200Z 12007KT 9999 FEW025 26/22 Q////

Hora: 18:19 (22:19 UTC)

Pronòstic

L'informe es va fer fa 5 hores i 19 minuts, a les 17:00 UTC
Pronòstic vàlid del 27 a les 18 UTC al 28 a les 18 UTC
Vent 10 kt del Est/Sud-Est
Visibilitat 10 km o més
Núvols disperses a una alçada de 2000 ft

TAF: TRPG 271700Z 2718/2818 12010KT 9999 SCT020

Observacions i pronòstics meteorològics de més de 4000 aeroports (METAR i TAF).

Les estacions disponibles són els punts grocs i vermells al mapa.

Posi el ratolí al punt desitjat per veure el nom de l'estació.

Feu clic per veure les observacions i els pronòstics meteorològics.

Per canviar el mapa: feu clic els botons verds amb una creu de color negre per apropar; al botó verd amb un guió per allunyar la imatge; o en les fletxes verdes per a mapes adjacents.


METAR-TAF: